Time;durP1;ratioP1;P1;durP2;ratioP2;P2;SDS_P1;SDS_P2;PMS_P1;PMS_P2;Temp;Humidity;BMP_temperature;BMP_pressure;BME280_temperature;BME280_humidity;BME280_pressure;Samples;Min_cycle;Max_cycle;Signal;HPM_P1;HPM_P2
2023/06/07 00:01:29;;;;;;;4.10;2.35;;;22.10;63.30;;;;;;10014953;28;20037;-61
2023/06/07 00:06:19;;;;;;;4.07;2.47;;;22.00;63.50;;;;;;10028870;28;20030;-62
2023/06/07 00:11:10;;;;;;;3.92;2.80;;;22.10;63.40;;;;;;10033159;28;20073;-62
2023/06/07 00:16:01;;;;;;;4.65;2.72;;;22.10;63.30;;;;;;10032927;28;20016;-61
2023/06/07 00:20:52;;;;;;;4.85;2.45;;;22.10;63.40;;;;;;10028923;28;20030;-63
2023/06/07 00:25:43;;;;;;;4.82;2.80;;;22.00;63.50;;;;;;10031986;28;20045;-60
2023/06/07 00:30:34;;;;;;;4.57;2.50;;;21.90;63.90;;;;;;10030979;28;20030;-63
2023/06/07 00:35:25;;;;;;;5.70;2.55;;;21.70;64.20;;;;;;10022404;28;20086;-63
2023/06/07 00:40:15;;;;;;;3.50;2.15;;;21.60;64.60;;;;;;10030836;28;20038;-62
2023/06/07 00:45:06;;;;;;;3.95;2.72;;;21.40;64.90;;;;;;10035215;28;20065;-65
2023/06/07 00:49:57;;;;;;;5.25;2.78;;;21.20;65.40;;;;;;10015873;28;20085;-70
2023/06/07 00:54:50;;;;;;;3.60;2.58;;;21.10;65.80;;;;;;10008883;28;20449;-61
2023/06/07 00:59:40;;;;;;;3.97;3.15;;;21.00;66.00;;;;;;10004035;28;20489;-64
2023/06/07 01:04:31;;;;;;;4.18;2.42;;;20.90;66.20;;;;;;10027410;28;20113;-62
2023/06/07 01:09:22;;;;;;;3.65;2.33;;;20.70;66.70;;;;;;10032968;28;20026;-67
2023/06/07 01:14:14;;;;;;;3.33;2.30;;;20.80;66.60;;;;;;10026581;28;20036;-62
2023/06/07 01:19:06;;;;;;;5.15;2.60;;;20.70;66.90;;;;;;10026188;28;20026;-64
2023/06/07 01:23:59;;;;;;;3.15;2.25;;;20.60;67.10;;;;;;10027684;28;20030;-62
2023/06/07 01:28:49;;;;;;;5.88;2.22;;;20.60;67.10;;;;;;10026647;28;20026;-63
2023/06/07 01:33:42;;;;;;;3.83;2.53;;;20.60;68.10;;;;;;10026091;28;20173;-61
2023/06/07 01:38:33;;;;;;;5.85;3.10;;;20.40;67.50;;;;;;10024730;28;20033;-62
2023/06/07 01:43:25;;;;;;;3.45;2.33;;;20.50;67.40;;;;;;10024816;28;20100;-62
2023/06/07 01:48:16;;;;;;;3.15;2.50;;;20.30;68.70;;;;;;10021266;28;20080;-64
2023/06/07 01:53:07;;;;;;;6.47;2.92;;;20.20;68.60;;;;;;10023695;28;20025;-64
2023/06/07 01:58:22;;;;;;;3.38;2.40;;;20.20;68.60;;;;;;9999529;28;20057;-61
2023/06/07 02:03:26;;;;;;;3.13;2.47;;;20.30;69.00;;;;;;10027967;28;20041;-63
2023/06/07 02:08:31;;;;;;;2.75;2.30;;;20.20;69.00;;;;;;10019395;28;20113;-71
2023/06/07 02:13:22;;;;;;;;;;;20.00;69.80;;;;;;10021587;28;20038;-59
2023/06/07 02:18:18;;;;;;;4.72;2.05;;;20.10;69.80;;;;;;10023795;28;20265;-61
2023/06/07 02:23:09;;;;;;;5.68;2.55;;;20.00;69.30;;;;;;10027971;28;20060;-72
2023/06/07 02:28:00;;;;;;;4.28;2.28;;;19.80;69.90;;;;;;10028767;28;20105;-68
2023/06/07 02:32:53;;;;;;;2.53;2.33;;;19.70;70.30;;;;;;10014663;28;20110;-61
2023/06/07 02:37:45;;;;;;;4.00;2.60;;;19.80;70.30;;;;;;10030554;28;20022;-70
2023/06/07 02:42:36;;;;;;;3.25;2.55;;;19.50;71.20;;;;;;10028620;28;20106;-64
2023/06/07 02:47:27;;;;;;;4.05;2.50;;;19.50;71.40;;;;;;10030650;28;20084;-61
2023/06/07 02:52:18;;;;;;;3.83;2.40;;;19.50;71.70;;;;;;10015563;28;20165;-67
2023/06/07 02:57:08;;;;;;;3.53;2.58;;;19.50;71.70;;;;;;10016427;28;20028;-70
2023/06/07 03:01:59;;;;;;;4.05;2.72;;;19.50;72.00;;;;;;10032763;28;20105;-69
2023/06/07 03:06:52;;;;;;;5.47;2.65;;;19.40;72.10;;;;;;10026599;28;20030;-61
2023/06/07 03:11:42;;;;;;;4.03;2.65;;;19.40;72.40;;;;;;10029631;28;20032;-68
2023/06/07 03:16:33;;;;;;;4.78;2.80;;;19.30;72.80;;;;;;10026955;28;20109;-60
2023/06/07 03:21:24;;;;;;;3.88;2.58;;;19.30;72.90;;;;;;10016021;28;20439;-65
2023/06/07 03:26:15;;;;;;;4.07;2.70;;;19.40;72.60;;;;;;10027979;28;20030;-61
2023/06/07 03:31:06;;;;;;;2.78;2.30;;;19.30;73.30;;;;;;10010827;28;20124;-60
2023/06/07 03:35:56;;;;;;;6.60;2.88;;;19.20;73.40;;;;;;10029727;28;20061;-62
2023/06/07 03:40:47;;;;;;;3.20;2.42;;;19.00;74.10;;;;;;10027350;28;20036;-63
2023/06/07 03:45:38;;;;;;;3.78;2.85;;;19.10;74.30;;;;;;10014055;28;20054;-61
2023/06/07 03:50:28;;;;;;;3.55;2.72;;;19.00;74.40;;;;;;10011155;28;20370;-62
2023/06/07 03:55:19;;;;;;;3.10;2.45;;;19.00;74.70;;;;;;10021946;28;20030;-60
2023/06/07 04:00:11;;;;;;;4.15;2.78;;;19.10;74.80;;;;;;10019630;28;20115;-61
2023/06/07 04:05:02;;;;;;;4.85;3.15;;;19.00;75.80;;;;;;10030020;28;20438;-67
2023/06/07 04:09:52;;;;;;;6.90;2.88;;;19.00;75.40;;;;;;10009590;28;20024;-61
2023/06/07 04:14:43;;;;;;;4.13;2.70;;;18.90;75.80;;;;;;10025712;28;20022;-61
2023/06/07 04:19:34;;;;;;;4.97;3.10;;;18.90;76.40;;;;;;10029773;28;20526;-61
2023/06/07 04:24:25;;;;;;;3.70;2.65;;;18.80;76.50;;;;;;10027683;28;20038;-62
2023/06/07 04:29:16;;;;;;;3.67;2.72;;;18.80;77.60;;;;;;10018176;28;20037;-68
2023/06/07 04:34:09;;;;;;;5.28;3.28;;;18.70;77.20;;;;;;10031595;28;20040;-70
2023/06/07 04:39:00;;;;;;;10.88;2.55;;;18.80;77.30;;;;;;10013299;28;20026;-73
2023/06/07 04:43:54;;;;;;;5.25;2.70;;;18.70;77.70;;;;;;10028406;28;20050;-62
2023/06/07 04:48:44;;;;;;;3.05;2.15;;;18.70;77.70;;;;;;10007169;28;20017;-64
2023/06/07 04:53:41;;;;;;;4.60;3.38;;;18.70;78.10;;;;;;10022225;28;20526;-61
2023/06/07 04:58:31;;;;;;;2.88;2.58;;;18.80;77.80;;;;;;10008190;28;20093;-61
2023/06/07 05:03:24;;;;;;;3.47;2.40;;;18.80;78.10;;;;;;10021070;28;20128;-64
2023/06/07 05:08:16;;;;;;;3.67;2.28;;;18.80;78.30;;;;;;10006463;28;20197;-65
2023/06/07 05:13:07;;;;;;;4.63;2.80;;;18.80;78.50;;;;;;10026296;28;20499;-60
2023/06/07 05:17:58;;;;;;;2.95;2.38;;;18.90;78.50;;;;;;10027879;28;20025;-63
2023/06/07 05:22:48;;;;;;;3.40;2.70;;;19.00;78.40;;;;;;10037938;28;20068;-77
2023/06/07 05:27:40;;;;;;;3.20;2.90;;;19.00;79.30;;;;;;10025663;28;20458;-63
2023/06/07 05:32:34;;;;;;;4.47;2.50;;;18.80;79.40;;;;;;10027825;28;20036;-63
2023/06/07 05:37:26;;;;;;;2.67;2.47;;;18.80;79.60;;;;;;10028939;28;20145;-80
2023/06/07 05:42:16;;;;;;;3.80;2.53;;;19.10;79.30;;;;;;10025015;28;20172;-62
2023/06/07 05:47:07;;;;;;;3.67;3.05;;;19.10;79.30;;;;;;10019530;28;20106;-61
2023/06/07 05:51:58;;;;;;;5.45;3.20;;;19.30;78.90;;;;;;10024126;28;20120;-62
2023/06/07 05:56:49;;;;;;;5.38;2.90;;;19.30;79.30;;;;;;10022532;28;20376;-61
2023/06/07 06:01:40;;;;;;;5.38;2.45;;;19.40;79.20;;;;;;10025079;28;20026;-64
2023/06/07 06:06:31;;;;;;;4.50;2.83;;;19.50;79.30;;;;;;10018467;28;20103;-61
2023/06/07 06:11:22;;;;;;;8.02;3.00;;;19.40;79.60;;;;;;10025495;28;20141;-62
2023/06/07 06:16:12;;;;;;;3.55;3.03;;;19.50;79.50;;;;;;10026319;28;20080;-66
2023/06/07 06:21:03;;;;;;;6.35;2.70;;;19.70;79.30;;;;;;10022266;28;20488;-68
2023/06/07 06:25:54;;;;;;;5.85;3.05;;;19.60;79.50;;;;;;10018785;28;20037;-63
2023/06/07 06:30:45;;;;;;;4.22;2.40;;;19.80;79.20;;;;;;10021986;28;20400;-63
2023/06/07 06:35:36;;;;;;;5.10;3.10;;;20.10;79.00;;;;;;10021094;28;20045;-65
2023/06/07 06:40:26;;;;;;;4.60;2.65;;;20.30;78.50;;;;;;10020483;28;20486;-60
2023/06/07 06:45:17;;;;;;;2.70;2.50;;;20.00;79.20;;;;;;10005008;28;20581;-60
2023/06/07 06:50:10;;;;;;;3.22;2.92;;;20.00;79.50;;;;;;10031039;28;20427;-62
2023/06/07 06:55:00;;;;;;;3.28;2.58;;;20.20;79.30;;;;;;10006347;28;20018;-64
2023/06/07 06:59:51;;;;;;;4.07;3.00;;;20.30;79.10;;;;;;10007971;28;20032;-68
2023/06/07 07:04:42;;;;;;;5.95;3.05;;;20.30;79.20;;;;;;10025716;28;20065;-81
2023/06/07 07:09:33;;;;;;;4.32;2.67;;;20.40;79.20;;;;;;10025419;28;20543;-71
2023/06/07 07:14:24;;;;;;;5.85;3.90;;;20.50;79.30;;;;;;10021034;28;20125;-71
2023/06/07 07:19:14;;;;;;;4.10;2.30;;;20.80;78.70;;;;;;10006593;28;20046;-63
2023/06/07 07:24:06;;;;;;;3.42;2.45;;;21.20;78.20;;;;;;10023954;28;20049;-62
2023/06/07 07:28:57;;;;;;;3.45;2.35;;;21.30;78.10;;;;;;10027447;28;20026;-62
2023/06/07 07:33:48;;;;;;;3.47;2.65;;;21.10;78.80;;;;;;10031434;28;20025;-62
2023/06/07 07:38:40;;;;;;;4.60;2.58;;;21.10;78.90;;;;;;10022006;28;20072;-66
2023/06/07 07:43:31;;;;;;;4.25;2.60;;;21.30;78.50;;;;;;10031010;28;20042;-70
2023/06/07 07:48:21;;;;;;;4.30;2.28;;;21.20;78.70;;;;;;10034941;28;20022;-63
2023/06/07 07:53:12;;;;;;;3.45;2.60;;;21.50;78.40;;;;;;10048755;28;20060;-65
2023/06/07 07:58:02;;;;;;;4.30;2.75;;;21.70;78.00;;;;;;10033106;28;20034;-65
2023/06/07 08:02:53;;;;;;;2.67;2.15;;;21.80;78.00;;;;;;10027813;28;20034;-65
2023/06/07 08:07:44;;;;;;;6.38;2.50;;;21.90;77.70;;;;;;10029761;28;20026;-68
2023/06/07 08:12:35;;;;;;;3.95;2.20;;;22.00;77.60;;;;;;10037439;28;20029;-62
2023/06/07 08:17:26;;;;;;;2.63;2.00;;;22.10;77.40;;;;;;10040393;28;20036;-74
2023/06/07 08:22:17;;;;;;;2.70;1.70;;;22.30;76.80;;;;;;10032811;28;20115;-62
2023/06/07 08:27:08;;;;;;;3.92;2.10;;;22.40;76.60;;;;;;10017539;28;20413;-67
2023/06/07 08:31:59;;;;;;;5.82;2.28;;;22.50;76.40;;;;;;10031008;28;20030;-66
2023/06/07 08:36:50;;;;;;;3.22;2.10;;;22.80;75.80;;;;;;10027060;28;20030;-60
2023/06/07 08:41:41;;;;;;;2.03;1.70;;;22.90;75.20;;;;;;10027231;28;20543;-68
2023/06/07 08:46:31;;;;;;;2.50;1.55;;;23.00;75.20;;;;;;10018254;28;20033;-63
2023/06/07 08:51:24;;;;;;;1.88;1.42;;;23.00;74.80;;;;;;10024675;28;20021;-67
2023/06/07 08:56:15;;;;;;;3.30;1.63;;;22.90;74.80;;;;;;10025786;28;20096;-71
2023/06/07 09:01:07;;;;;;;1.67;1.58;;;23.00;74.50;;;;;;10024379;28;20049;-74
2023/06/07 09:05:59;;;;;;;2.85;2.10;;;23.10;74.30;;;;;;10026267;28;20116;-61
2023/06/07 09:10:50;;;;;;;3.28;1.88;;;23.30;73.80;;;;;;10000537;28;20451;-63
2023/06/07 09:15:41;;;;;;;2.17;1.95;;;23.30;73.40;;;;;;10004695;28;20022;-69
2023/06/07 09:20:33;;;;;;;2.30;1.73;;;23.30;73.30;;;;;;10022286;28;20176;-70
2023/06/07 09:25:24;;;;;;;3.97;1.85;;;23.30;73.00;;;;;;10037165;28;20073;-68
2023/06/07 09:30:15;;;;;;;3.03;2.00;;;23.50;72.40;;;;;;10018784;28;20037;-62
2023/06/07 09:35:14;;;;;;;2.75;1.88;;;23.60;72.10;;;;;;10027894;28;20041;-70
2023/06/07 09:40:09;;;;;;;5.13;2.08;;;23.70;71.90;;;;;;10025630;28;20052;-63
2023/06/07 09:45:15;;;;;;;3.87;1.97;;;23.90;71.80;;;;;;10029787;28;20110;-66
2023/06/07 09:50:10;;;;;;;4.38;1.88;;;23.80;71.10;;;;;;10022675;28;20036;-61
2023/06/07 09:55:04;;;;;;;4.05;2.28;;;23.80;71.40;;;;;;10007065;28;20026;-61
2023/06/07 10:00:14;;;;;;;2.33;2.13;;;24.20;71.00;;;;;;10023428;28;20036;-60
2023/06/07 10:05:05;;;;;;;5.55;2.38;;;24.40;70.60;;;;;;10007266;28;20404;-63
2023/06/07 10:09:57;;;;;;;3.70;2.00;;;24.40;70.60;;;;;;10011262;28;20025;-62
2023/06/07 10:14:51;;;;;;;3.95;2.30;;;24.50;70.30;;;;;;10025899;28;20067;-67
2023/06/07 10:19:47;;;;;;;3.80;2.57;;;24.40;70.30;;;;;;10005974;28;20044;-63
2023/06/07 10:25:01;;;;;;;3.45;2.20;;;24.50;69.70;;;;;;10021944;28;20136;-61
2023/06/07 10:30:03;;;;;;;3.97;3.40;;;24.30;69.20;;;;;;10015708;28;20026;-62
2023/06/07 10:34:55;;;;;;;2.90;2.30;;;24.30;69.30;;;;;;10020785;28;20049;-62
2023/06/07 10:39:46;;;;;;;4.95;2.38;;;24.60;68.90;;;;;;10021624;28;20087;-62
2023/06/07 10:44:37;;;;;;;3.33;2.72;;;24.60;68.60;;;;;;10019808;28;20045;-61
2023/06/07 10:49:35;;;;;;;5.20;2.75;;;24.60;68.40;;;;;;10016352;28;20036;-62
2023/06/07 10:54:33;;;;;;;3.15;2.10;;;24.70;68.20;;;;;;10002661;28;20030;-64
2023/06/07 10:59:23;;;;;;;6.10;3.75;;;25.10;67.70;;;;;;10020119;28;20101;-62
2023/06/07 11:04:49;;;;;;;2.83;2.50;;;25.20;67.50;;;;;;10002672;28;20121;-64
2023/06/07 11:09:40;;;;;;;3.15;2.17;;;25.20;66.50;;;;;;9999187;28;20025;-69
2023/06/07 11:14:30;;;;;;;2.08;1.88;;;25.00;66.90;;;;;;10019210;28;20144;-70
2023/06/07 11:19:21;;;;;;;2.47;2.03;;;25.00;66.90;;;;;;10024160;28;20038;-65
2023/06/07 11:24:12;;;;;;;6.07;2.10;;;25.30;66.60;;;;;;10008367;28;20038;-69
2023/06/07 11:29:08;;;;;;;7.22;2.78;;;25.50;66.30;;;;;;10030883;28;20029;-65
2023/06/07 11:33:59;;;;;;;3.83;2.53;;;25.40;66.50;;;;;;10011703;28;20065;-66
2023/06/07 11:38:52;;;;;;;2.58;2.00;;;25.50;66.50;;;;;;10028588;28;20030;-62
2023/06/07 11:43:45;;;;;;;2.60;1.75;;;25.40;66.30;;;;;;10028095;28;20060;-64
2023/06/07 11:48:36;;;;;;;3.15;1.58;;;25.50;66.00;;;;;;10027343;28;20032;-69
2023/06/07 11:53:30;;;;;;;4.72;3.30;;;25.70;65.90;;;;;;10027837;28;20026;-64
2023/06/07 11:58:22;;;;;;;4.05;2.20;;;26.00;65.60;;;;;;10029354;28;20042;-62
2023/06/07 12:03:13;;;;;;;2.75;1.90;;;26.40;65.20;;;;;;10007596;28;20100;-69
2023/06/07 12:08:11;;;;;;;3.13;2.13;;;26.40;64.70;;;;;;10026940;28;20103;-61
2023/06/07 12:13:11;;;;;;;2.38;1.75;;;26.40;64.60;;;;;;10021862;28;20030;-61
2023/06/07 12:18:02;;;;;;;3.55;2.10;;;26.80;64.10;;;;;;10027428;28;20034;-61
2023/06/07 12:23:01;;;;;;;1.70;1.60;;;27.10;64.80;;;;;;10014158;28;20049;-71
2023/06/07 12:27:53;;;;;;;1.85;1.63;;;27.20;64.50;;;;;;10028085;28;20514;-61
2023/06/07 12:32:44;;;;;;;2.00;1.55;;;27.40;64.10;;;;;;10025263;28;20030;-62
2023/06/07 12:37:35;;;;;;;1.92;1.70;;;27.70;64.10;;;;;;10007821;28;20041;-61
2023/06/07 12:42:26;;;;;;;2.42;1.45;;;27.90;64.00;;;;;;10029278;28;20371;-61
2023/06/07 12:47:17;;;;;;;2.05;1.88;;;28.40;63.40;;;;;;10020976;28;20608;-64
2023/06/07 12:52:07;;;;;;;1.70;1.40;;;28.90;63.10;;;;;;10025261;28;20029;-62
2023/06/07 12:56:58;;;;;;;2.15;1.80;;;29.90;62.20;;;;;;10023008;28;20018;-61
2023/06/07 13:01:49;;;;;;;3.08;1.60;;;31.20;60.80;;;;;;10026588;28;20025;-61
2023/06/07 13:06:40;;;;;;;2.67;2.47;;;31.40;60.00;;;;;;10026183;28;20033;-62
2023/06/07 13:11:31;;;;;;;2.55;1.73;;;31.80;59.10;;;;;;10025002;28;20317;-65
2023/06/07 13:16:21;;;;;;;2.38;1.52;;;31.80;58.00;;;;;;10026926;28;20068;-68
2023/06/07 13:21:12;;;;;;;1.60;1.50;;;32.50;57.20;;;;;;10024286;28;20025;-63
2023/06/07 13:26:03;;;;;;;2.53;1.70;;;32.50;56.70;;;;;;10024039;28;20083;-67
2023/06/07 13:30:53;;;;;;;1.73;1.50;;;32.60;55.70;;;;;;10024098;28;20033;-65
2023/06/07 13:35:44;;;;;;;3.97;1.67;;;33.10;55.20;;;;;;10023206;28;20026;-62
2023/06/07 13:40:35;;;;;;;1.58;1.48;;;33.60;55.00;;;;;;10023642;28;20030;-66
2023/06/07 13:45:26;;;;;;;2.27;1.73;;;34.60;53.40;;;;;;10002025;28;20347;-67
2023/06/07 13:50:17;;;;;;;;;;;35.40;52.30;;;;;;10003501;28;20059;-71
2023/06/07 13:55:08;;;;;;;2.23;1.53;;;34.50;50.80;;;;;;10026291;28;20179;-71
2023/06/07 13:59:59;;;;;;;2.33;1.55;;;34.80;51.60;;;;;;10023734;28;20045;-65
2023/06/07 14:04:50;;;;;;;1.90;1.42;;;35.40;50.60;;;;;;10023962;28;20045;-67
2023/06/07 14:09:40;;;;;;;1.83;1.70;;;35.40;49.70;;;;;;10024442;28;20105;-60
2023/06/07 14:14:31;;;;;;;1.80;1.43;;;34.60;49.90;;;;;;10017198;28;20759;-67
2023/06/07 14:19:21;;;;;;;1.40;1.27;;;35.30;49.10;;;;;;10017834;28;20117;-68
2023/06/07 14:24:12;;;;;;;2.40;1.50;;;35.70;48.70;;;;;;10021159;28;20034;-69
2023/06/07 14:29:03;;;;;;;3.10;1.38;;;35.00;48.80;;;;;;10021232;28;20034;-66
2023/06/07 14:33:53;;;;;;;;;;;35.70;48.30;;;;;;10022569;28;20030;-63
2023/06/07 14:38:45;;;;;;;3.03;1.90;;;36.30;47.80;;;;;;10026970;28;20015;-65
2023/06/07 14:43:35;;;;;;;3.88;1.90;;;36.40;48.40;;;;;;10024150;28;20414;-63
2023/06/07 14:48:26;;;;;;;;;;;36.10;48.30;;;;;;10013320;28;20026;-63
2023/06/07 14:53:16;;;;;;;3.33;1.70;;;36.10;46.40;;;;;;10022451;28;19912;-68
2023/06/07 14:58:08;;;;;;;;;;;35.50;47.80;;;;;;10020782;28;20109;-71
2023/06/07 15:02:59;;;;;;;2.25;2.05;;;35.80;47.30;;;;;;10022342;28;19913;-72
2023/06/07 15:07:49;;;;;;;;;;;36.50;48.00;;;;;;10008647;28;20029;-66
2023/06/07 15:12:40;;;;;;;3.80;1.50;;;35.70;47.30;;;;;;10026463;28;19917;-77
2023/06/07 15:17:31;;;;;;;3.38;1.50;;;35.90;48.00;;;;;;10026900;28;20463;-71
2023/06/07 15:22:21;;;;;;;3.63;1.40;;;35.40;47.90;;;;;;10026444;28;20037;-77
2023/06/07 15:27:12;;;;;;;1.60;1.43;;;34.70;47.90;;;;;;10027683;28;20046;-76
2023/06/07 15:32:03;;;;;;;1.70;1.60;;;35.60;47.30;;;;;;10027708;28;20034;-70
2023/06/07 15:36:53;;;;;;;2.10;1.70;;;36.30;46.60;;;;;;10031890;28;20273;-75
2023/06/07 15:41:50;;;;;;;1.58;1.48;;;36.60;46.10;;;;;;10030616;28;20057;-70
2023/06/07 15:46:42;;;;;;;2.58;1.40;;;36.50;45.50;;;;;;10020302;28;20558;-64
2023/06/07 15:51:32;;;;;;;2.58;2.13;;;36.20;45.80;;;;;;10026337;28;20051;-62
2023/06/07 15:56:23;;;;;;;2.83;1.73;;;36.90;45.30;;;;;;10021042;28;20052;-62
2023/06/07 16:01:14;;;;;;;1.67;1.30;;;37.00;44.90;;;;;;10020470;28;20493;-71
2023/06/07 16:06:05;;;;;;;2.80;1.60;;;36.70;44.90;;;;;;10006285;28;20076;-67
2023/06/07 16:10:55;;;;;;;;;;;38.00;44.40;;;;;;10020693;28;20041;-78
2023/06/07 16:15:46;;;;;;;2.60;1.60;;;37.60;43.80;;;;;;10029783;28;19909;-64
2023/06/07 16:20:37;;;;;;;1.87;1.77;;;38.10;43.80;;;;;;10032171;28;20033;-64
2023/06/07 16:25:27;;;;;;;1.93;1.80;;;38.10;43.50;;;;;;10030727;28;20034;-64
2023/06/07 16:30:18;;;;;;;3.83;1.70;;;38.90;43.00;;;;;;10027068;28;20883;-74
2023/06/07 16:35:09;;;;;;;1.95;1.77;;;39.30;42.60;;;;;;10026328;28;20269;-66
2023/06/07 16:39:59;;;;;;;2.30;1.90;;;38.90;42.60;;;;;;10025129;28;20030;-70
2023/06/07 16:44:50;;;;;;;;;;;39.10;42.80;;;;;;10022523;28;20543;-64
2023/06/07 16:49:40;;;;;;;2.10;1.90;;;39.30;42.20;;;;;;10022627;28;19905;-62
2023/06/07 16:54:31;;;;;;;;;;;39.20;43.40;;;;;;10026007;28;20034;-63
2023/06/07 16:59:24;;;;;;;2.57;1.70;;;38.60;42.60;;;;;;10026412;28;20185;-70
2023/06/07 17:04:16;;;;;;;1.80;1.70;;;38.10;43.30;;;;;;10033193;28;20040;-78
2023/06/07 17:09:07;;;;;;;8.70;2.90;;;37.80;43.50;;;;;;10033824;28;20114;-79
2023/06/07 17:13:58;;;;;;;2.07;1.87;;;37.90;43.60;;;;;;10024685;28;20022;-64
2023/06/07 17:18:48;;;;;;;2.00;1.90;;;37.20;43.90;;;;;;10018258;28;20033;-73
2023/06/07 17:23:40;;;;;;;1.97;1.80;;;37.10;44.10;;;;;;10025793;28;20045;-69
2023/06/07 17:28:31;;;;;;;;;;;36.60;44.30;;;;;;10021197;28;20038;-62
2023/06/07 17:33:21;;;;;;;;;;;35.90;44.40;;;;;;10024797;28;20294;-70
2023/06/07 17:38:12;;;;;;;;;;;35.70;45.00;;;;;;10023390;28;20376;-73
2023/06/07 17:43:02;;;;;;;;;;;35.30;45.30;;;;;;10023161;28;19953;-70
2023/06/07 17:47:53;;;;;;;;;;;34.50;46.10;;;;;;10018926;28;19992;-74
2023/06/07 17:52:45;;;;;;;;;;;34.10;46.80;;;;;;10024437;28;20274;-81
2023/06/07 17:57:35;;;;;;;;;;;33.50;47.30;;;;;;10023563;28;19944;-81
2023/06/07 18:02:26;;;;;;;;;;;32.80;48.00;;;;;;10023948;28;19915;-69
2023/06/07 18:07:17;;;;;;;;;;;31.00;49.90;;;;;;10023086;28;19909;-74
2023/06/07 18:12:08;;;;;;;;;;;29.90;50.80;;;;;;10021129;28;19905;-73
2023/06/07 18:16:58;;;;;;;;;;;29.10;51.80;;;;;;10026031;28;19909;-76
2023/06/07 18:21:51;;;;;;;;;;;29.00;51.00;;;;;;10024491;28;19939;-72
2023/06/07 18:26:42;;;;;;;;;;;28.70;51.90;;;;;;10023191;28;19914;-75
2023/06/07 18:31:33;;;;;;;;;;;28.50;51.90;;;;;;10022641;28;19905;-68
2023/06/07 18:36:23;;;;;;;;;;;28.30;51.80;;;;;;10021887;28;19951;-63
2023/06/07 18:41:14;;;;;;;;;;;28.20;52.40;;;;;;10022984;28;19924;-63
2023/06/07 18:46:04;;;;;;;;;;;28.10;51.90;;;;;;10016236;28;19920;-61
2023/06/07 18:50:55;;;;;;;;;;;28.00;51.90;;;;;;10020926;28;19906;-62
2023/06/07 18:55:46;;;;;;;;;;;27.80;52.60;;;;;;10023409;28;20355;-64
2023/06/07 19:00:37;;;;;;;;;;;27.70;52.30;;;;;;10023736;28;19909;-67
2023/06/07 19:05:27;;;;;;;;;;;27.60;52.70;;;;;;10028223;28;20016;-64
2023/06/07 19:10:18;;;;;;;;;;;27.50;52.30;;;;;;10029078;28;19909;-67
2023/06/07 19:15:09;;;;;;;;;;;27.60;52.30;;;;;;10016216;28;19909;-70
2023/06/07 19:20:00;;;;;;;;;;;27.40;52.70;;;;;;10018134;28;19909;-66
2023/06/07 19:24:50;;;;;;;;;;;27.20;53.00;;;;;;10020667;28;20306;-61
2023/06/07 19:29:41;;;;;;;;;;;27.20;52.80;;;;;;10018880;28;19913;-65
2023/06/07 19:34:31;;;;;;;;;;;27.00;53.20;;;;;;10017004;28;19910;-66
2023/06/07 19:39:22;;;;;;;;;;;26.90;53.80;;;;;;10016438;28;20205;-67
2023/06/07 19:44:12;;;;;;;;;;;26.80;53.40;;;;;;10016778;28;19923;-67
2023/06/07 19:49:03;;;;;;;;;;;26.80;53.20;;;;;;10022096;28;19909;-64
2023/06/07 19:53:56;;;;;;;;;;;26.70;53.80;;;;;;10026710;28;20062;-71
2023/06/07 19:58:46;;;;;;;;;;;26.60;53.80;;;;;;10023508;28;20323;-67
2023/06/07 20:03:37;;;;;;;;;;;26.40;54.30;;;;;;10020157;28;19921;-66
2023/06/07 20:08:27;;;;;;;;;;;26.60;53.90;;;;;;10022395;28;19914;-64
2023/06/07 20:13:20;;;;;;;;;;;26.60;54.40;;;;;;10020471;28;19959;-66
2023/06/07 20:18:10;;;;;;;;;;;26.50;55.30;;;;;;10023863;28;19906;-63
2023/06/07 20:23:01;;;;;;;;;;;26.40;55.00;;;;;;10023962;28;19913;-71
2023/06/07 20:27:51;;;;;;;;;;;26.40;54.80;;;;;;10023912;28;19956;-64
2023/06/07 20:32:42;;;;;;;;;;;26.30;54.80;;;;;;10023854;28;19952;-62
2023/06/07 20:37:34;;;;;;;;;;;26.30;55.80;;;;;;10024334;28;19953;-66
2023/06/07 20:42:24;;;;;;;;;;;26.10;55.10;;;;;;10021612;28;19921;-63
2023/06/07 20:47:16;;;;;;;;;;;26.00;55.70;;;;;;10023169;28;19910;-67
2023/06/07 20:52:06;;;;;;;;;;;26.00;56.00;;;;;;10005265;28;19967;-69
2023/06/07 20:56:57;;;;;;;;;;;25.80;56.10;;;;;;10021906;28;19991;-67
2023/06/07 21:01:51;;;;;;;;;;;25.70;56.50;;;;;;10005452;28;19912;-60
2023/06/07 21:06:41;;;;;;;;;;;25.70;56.40;;;;;;10022755;28;20007;-62
2023/06/07 21:11:32;;;;;;;;;;;25.90;56.20;;;;;;10025336;28;20019;-59
2023/06/07 21:16:22;;;;;;;;;;;25.80;56.80;;;;;;10022389;28;19912;-61
2023/06/07 21:21:13;;;;;;;;;;;25.60;57.10;;;;;;10020944;28;19991;-62
2023/06/07 21:26:03;;;;;;;;;;;25.50;57.00;;;;;;10025183;28;20023;-63
2023/06/07 21:30:54;;;;;;;;;;;25.40;57.60;;;;;;10027435;28;20019;-62
2023/06/07 21:35:44;;;;;;;;;;;25.20;58.20;;;;;;10022127;28;19944;-64
2023/06/07 21:40:37;;;;;;;;;;;25.20;58.00;;;;;;10020286;28;19921;-63
2023/06/07 21:45:27;;;;;;;;;;;25.20;58.00;;;;;;10020291;28;19975;-62
2023/06/07 21:50:18;;;;;;;;;;;25.00;59.10;;;;;;10020112;28;20328;-67
2023/06/07 21:55:09;;;;;;;;;;;25.00;58.80;;;;;;10020578;28;20387;-61
2023/06/07 21:59:59;;;;;;;;;;;25.00;58.70;;;;;;10001967;28;19940;-61
2023/06/07 22:04:50;;;;;;;;;;;25.10;58.20;;;;;;10019476;28;20291;-60
2023/06/07 22:09:40;;;;;;;;;;;25.10;58.40;;;;;;10018290;28;20234;-61
2023/06/07 22:14:32;;;;;;;;;;;25.00;58.20;;;;;;10019028;28;19964;-61
2023/06/07 22:19:23;;;;;;;;;;;25.00;58.70;;;;;;10014735;28;19909;-69
2023/06/07 22:24:17;;;;;;;;;;;24.90;58.80;;;;;;10018738;28;19971;-63
2023/06/07 22:29:08;;;;;;;;;;;24.90;58.80;;;;;;10019237;28;19963;-63
2023/06/07 22:34:02;;;;;;;;;;;24.60;59.20;;;;;;10020031;28;19913;-59
2023/06/07 22:38:53;;;;;;;;;;;24.60;59.30;;;;;;10018933;28;20381;-70
2023/06/07 22:43:43;;;;;;;;;;;24.40;60.00;;;;;;10019706;28;20011;-68
2023/06/07 22:48:34;;;;;;;;;;;24.20;60.00;;;;;;10013829;28;19913;-64
2023/06/07 22:53:24;;;;;;;;;;;24.20;60.00;;;;;;10018497;28;20398;-68
2023/06/07 22:58:15;;;;;;;;;;;24.20;59.90;;;;;;10018320;28;20071;-67
2023/06/07 23:03:08;;;;;;;;;;;24.00;60.00;;;;;;10017688;28;20448;-70
2023/06/07 23:07:59;;;;;;;;;;;23.90;60.60;;;;;;10021810;28;19917;-65
2023/06/07 23:12:50;;;;;;;;;;;23.70;60.40;;;;;;10017042;28;19909;-73
2023/06/07 23:17:42;;;;;;;;;;;23.60;60.90;;;;;;9999608;28;20322;-70
2023/06/07 23:22:32;;;;;;;;;;;23.50;61.60;;;;;;10021953;28;19977;-64
2023/06/07 23:27:23;;;;;;;;;;;23.50;61.50;;;;;;10025734;28;19924;-70
2023/06/07 23:32:13;;;;;;;;;;;23.30;62.30;;;;;;10025539;28;20007;-64
2023/06/07 23:37:04;;;;;;;;;;;23.20;62.80;;;;;;10024662;28;20004;-65
2023/06/07 23:41:56;;;;;;;;;;;23.30;62.50;;;;;;10025068;28;20012;-65
2023/06/07 23:46:47;;;;;;;;;;;23.30;62.60;;;;;;10027143;28;19922;-64
2023/06/07 23:51:37;;;;;;;;;;;23.40;62.60;;;;;;10007011;28;19992;-63
2023/06/07 23:56:28;;;;;;;;;;;23.20;62.80;;;;;;10021419;28;20004;-65
